createdAt,value
2022-08-12T00:00:04.000Z,1011.5
2022-08-12T00:01:21.000Z,1011.6
2022-08-12T00:02:37.000Z,1011.5
2022-08-12T00:03:53.000Z,1011.5
2022-08-12T00:05:08.000Z,1011.5
2022-08-12T00:06:24.000Z,1011.5
2022-08-12T00:07:40.000Z,1011.5
2022-08-12T00:08:57.000Z,1011.5
2022-08-12T00:10:13.000Z,1011.5
2022-08-12T00:11:29.000Z,1011.5
2022-08-12T00:12:45.000Z,1011.5
2022-08-12T00:14:01.000Z,1011.5
2022-08-12T00:15:18.000Z,1011.5
2022-08-12T00:16:34.000Z,1011.5
2022-08-12T00:17:50.000Z,1011.5
2022-08-12T00:19:06.000Z,1011.5
2022-08-12T00:20:22.000Z,1011.5
2022-08-12T00:21:38.000Z,1011.5
2022-08-12T00:22:54.000Z,1011.5
2022-08-12T00:24:10.000Z,1011.5
2022-08-12T00:25:26.000Z,1011.5
2022-08-12T00:26:42.000Z,1011.5
2022-08-12T00:27:58.000Z,1011.6
2022-08-12T00:29:14.000Z,1011.6
2022-08-12T00:30:30.000Z,1011.6
2022-08-12T00:31:46.000Z,1011.5
2022-08-12T00:33:02.000Z,1011.6
2022-08-12T00:34:18.000Z,1011.6
2022-08-12T00:35:35.000Z,1011.6
2022-08-12T00:36:51.000Z,1011.6
2022-08-12T00:38:07.000Z,1011.5
2022-08-12T00:39:23.000Z,1011.6
2022-08-12T00:40:39.000Z,1011.6
2022-08-12T00:41:56.000Z,1011.5
2022-08-12T00:43:12.000Z,1011.5
2022-08-12T00:44:28.000Z,1011.5
2022-08-12T00:45:44.000Z,1011.5
2022-08-12T00:46:59.000Z,1011.5
2022-08-12T00:48:16.000Z,1011.6
2022-08-12T00:49:32.000Z,1011.6
2022-08-12T00:50:48.000Z,1011.5
2022-08-12T00:52:04.000Z,1011.5
2022-08-12T00:53:20.000Z,1011.5
2022-08-12T00:54:36.000Z,1011.6
2022-08-12T00:55:53.000Z,1011.5
2022-08-12T00:57:09.000Z,1011.6
2022-08-12T00:58:25.000Z,1011.5
2022-08-12T00:59:41.000Z,1011.6
2022-08-12T01:00:57.000Z,1011.6
2022-08-12T01:02:14.000Z,1011.6
2022-08-12T01:03:29.000Z,1011.5
2022-08-12T01:04:45.000Z,1011.5
2022-08-12T01:06:01.000Z,1011.6
2022-08-12T01:07:17.000Z,1011.6
2022-08-12T01:08:34.000Z,1011.6
2022-08-12T01:09:50.000Z,1011.5
2022-08-12T01:11:06.000Z,1011.6
2022-08-12T01:12:22.000Z,1011.5
2022-08-12T01:13:38.000Z,1011.5
2022-08-12T01:14:54.000Z,1011.5
2022-08-12T01:16:11.000Z,1011.6
2022-08-12T01:17:27.000Z,1011.5
2022-08-12T01:18:43.000Z,1011.5
2022-08-12T01:19:58.000Z,1011.5
2022-08-12T01:21:14.000Z,1011.5
2022-08-12T01:22:31.000Z,1011.6
2022-08-12T01:23:47.000Z,1011.4
2022-08-12T01:25:03.000Z,1011.6
2022-08-12T01:26:19.000Z,1011.6
2022-08-12T01:27:35.000Z,1011.6
2022-08-12T01:28:52.000Z,1011.6
2022-08-12T01:30:08.000Z,1011.6
2022-08-12T01:31:24.000Z,1011.5
2022-08-12T01:32:40.000Z,1011.6
2022-08-12T01:33:56.000Z,1011.7
2022-08-12T01:35:12.000Z,1011.6
2022-08-12T01:36:28.000Z,1011.6
2022-08-12T01:37:44.000Z,1011.6
2022-08-12T01:39:00.000Z,1011.6
2022-08-12T01:40:16.000Z,1011.6
2022-08-12T01:41:32.000Z,1011.7
2022-08-12T01:42:49.000Z,1011.7
2022-08-12T01:44:05.000Z,1011.7
2022-08-12T01:45:21.000Z,1011.6
2022-08-12T01:46:37.000Z,1011.6
2022-08-12T01:47:53.000Z,1011.6
2022-08-12T01:49:10.000Z,1011.6
2022-08-12T01:50:26.000Z,1011.6
2022-08-12T01:51:42.000Z,1011.6
2022-08-12T01:52:57.000Z,1011.6
2022-08-12T01:54:13.000Z,1011.6
2022-08-12T01:55:29.000Z,1011.5
2022-08-12T01:56:46.000Z,1011.6
2022-08-12T01:58:02.000Z,1011.5
2022-08-12T01:59:18.000Z,1011.6
2022-08-12T02:00:34.000Z,1011.5
2022-08-12T02:01:50.000Z,1011.5
2022-08-12T02:03:07.000Z,1011.5
2022-08-12T02:04:23.000Z,1011.5
2022-08-12T02:05:39.000Z,1011.5
2022-08-12T02:06:55.000Z,1011.5
2022-08-12T02:08:11.000Z,1011.6
2022-08-12T02:09:27.000Z,1011.5
2022-08-12T02:10:43.000Z,1011.6
2022-08-12T02:11:59.000Z,1011.6
2022-08-12T02:13:15.000Z,1011.6
2022-08-12T02:14:31.000Z,1011.5
2022-08-12T02:15:48.000Z,1011.6
2022-08-12T02:17:04.000Z,1011.5
2022-08-12T02:18:20.000Z,1011.5
2022-08-12T02:19:36.000Z,1011.6
2022-08-12T02:20:52.000Z,1011.6
2022-08-12T02:22:08.000Z,1011.6
2022-08-12T02:23:25.000Z,1011.6
2022-08-12T02:24:41.000Z,1011.5
2022-08-12T02:25:56.000Z,1011.6
2022-08-12T02:27:12.000Z,1011.5
2022-08-12T02:28:28.000Z,1011.6
2022-08-12T02:29:45.000Z,1011.6
2022-08-12T02:31:01.000Z,1011.6
2022-08-12T02:32:17.000Z,1011.6
2022-08-12T02:33:33.000Z,1011.6
2022-08-12T02:34:49.000Z,1011.6
2022-08-12T02:36:06.000Z,1011.6
2022-08-12T02:37:22.000Z,1011.5
2022-08-12T02:38:38.000Z,1011.5
2022-08-12T02:39:54.000Z,1011.6
2022-08-12T02:41:10.000Z,1011.6
2022-08-12T02:42:25.000Z,1011.6
2022-08-12T02:43:42.000Z,1011.6
2022-08-12T02:44:58.000Z,1011.5
2022-08-12T02:46:14.000Z,1011.5
2022-08-12T02:47:30.000Z,1011.6
2022-08-12T02:48:46.000Z,1011.5
2022-08-12T02:50:03.000Z,1011.6
2022-08-12T02:51:19.000Z,1011.6
2022-08-12T02:52:35.000Z,1011.5
2022-08-12T02:53:51.000Z,1011.6
2022-08-12T02:55:07.000Z,1011.6
2022-08-12T02:56:24.000Z,1011.6
2022-08-12T02:57:40.000Z,1011.6
2022-08-12T02:58:55.000Z,1011.6
2022-08-12T03:00:11.000Z,1011.6
2022-08-12T03:01:27.000Z,1011.6
2022-08-12T03:02:43.000Z,1011.6
2022-08-12T03:04:00.000Z,1011.7
2022-08-12T03:05:16.000Z,1011.7
2022-08-12T03:06:32.000Z,1011.7
2022-08-12T03:07:48.000Z,1011.6
2022-08-12T03:09:04.000Z,1011.7
2022-08-12T03:10:21.000Z,1011.7
2022-08-12T03:11:37.000Z,1011.6
2022-08-12T03:12:53.000Z,1011.6
2022-08-12T03:14:09.000Z,1011.6
2022-08-12T03:15:24.000Z,1011.6
2022-08-12T03:16:41.000Z,1011.5
2022-08-12T03:17:57.000Z,1011.5
2022-08-12T03:19:13.000Z,1011.5
2022-08-12T03:20:29.000Z,1011.5
2022-08-12T03:21:45.000Z,1011.5
2022-08-12T03:23:01.000Z,1011.6
2022-08-12T03:24:18.000Z,1011.5
2022-08-12T03:25:34.000Z,1011.5
2022-08-12T03:26:50.000Z,1011.5
2022-08-12T03:28:06.000Z,1011.5
2022-08-12T03:29:22.000Z,1011.5
2022-08-12T03:30:39.000Z,1011.5
2022-08-12T03:31:54.000Z,1011.5
2022-08-12T03:33:10.000Z,1011.5
2022-08-12T03:34:26.000Z,1011.5
2022-08-12T03:35:42.000Z,1011.5
2022-08-12T03:36:59.000Z,1011.5
2022-08-12T03:38:15.000Z,1011.6
2022-08-12T03:39:31.000Z,1011.5
2022-08-12T03:40:47.000Z,1011.5
2022-08-12T03:42:03.000Z,1011.5
2022-08-12T03:43:20.000Z,1011.5
2022-08-12T03:44:36.000Z,1011.5
2022-08-12T03:45:52.000Z,1011.4
2022-08-12T03:47:08.000Z,1011.5
2022-08-12T03:48:23.000Z,1011.4
2022-08-12T03:49:39.000Z,1011.5
2022-08-12T03:50:56.000Z,1011.5
2022-08-12T03:52:12.000Z,1011.5
2022-08-12T03:53:28.000Z,1011.5
2022-08-12T03:54:44.000Z,1011.4
2022-08-12T03:56:00.000Z,1011.4
2022-08-12T03:57:17.000Z,1011.5
2022-08-12T03:58:33.000Z,1011.6
2022-08-12T03:59:49.000Z,1011.7
2022-08-12T04:01:05.000Z,1011.6
2022-08-12T04:02:21.000Z,1011.6
2022-08-12T04:03:38.000Z,1011.6
2022-08-12T04:04:53.000Z,1011.6
2022-08-12T04:06:09.000Z,1011.6
2022-08-12T04:07:25.000Z,1011.6
2022-08-12T04:08:41.000Z,1011.5
2022-08-12T04:09:57.000Z,1011.6
2022-08-12T04:11:14.000Z,1011.6
2022-08-12T04:12:30.000Z,1011.5
2022-08-12T04:13:46.000Z,1011.6
2022-08-12T04:15:02.000Z,1011.6
2022-08-12T04:16:18.000Z,1011.6
2022-08-12T04:17:35.000Z,1011.6
2022-08-12T04:18:51.000Z,1011.6
2022-08-12T04:20:07.000Z,1011.5
2022-08-12T04:21:22.000Z,1011.6
2022-08-12T04:22:38.000Z,1011.6
2022-08-12T04:23:55.000Z,1011.5
2022-08-12T04:25:11.000Z,1011.5
2022-08-12T04:26:27.000Z,1011.6
2022-08-12T04:27:43.000Z,1011.6
2022-08-12T04:28:59.000Z,1011.5
2022-08-12T04:30:16.000Z,1011.6
2022-08-12T04:31:32.000Z,1011.6
2022-08-12T04:32:48.000Z,1011.6
2022-08-12T04:34:04.000Z,1011.5
2022-08-12T04:35:20.000Z,1011.5
2022-08-12T04:36:36.000Z,1011.5
2022-08-12T04:37:52.000Z,1011.6
2022-08-12T04:39:08.000Z,1011.5
2022-08-12T04:40:24.000Z,1011.6
2022-08-12T04:41:40.000Z,1011.5
2022-08-12T04:42:56.000Z,1011.5
2022-08-12T04:44:12.000Z,1011.6
2022-08-12T04:45:28.000Z,1011.5
2022-08-12T04:46:44.000Z,1011.5
2022-08-12T04:48:00.000Z,1011.5
2022-08-12T04:49:16.000Z,1011.5
2022-08-12T04:50:33.000Z,1011.5
2022-08-12T04:51:49.000Z,1011.4
2022-08-12T04:53:05.000Z,1011.4
2022-08-12T04:54:21.000Z,1011.4
2022-08-12T04:55:37.000Z,1011.4
2022-08-12T04:56:53.000Z,1011.4
2022-08-12T04:58:10.000Z,1011.4
2022-08-12T04:59:26.000Z,1011.4
2022-08-12T05:00:41.000Z,1011.4
2022-08-12T05:01:57.000Z,1011.4
2022-08-12T05:03:13.000Z,1011.4
2022-08-12T05:04:30.000Z,1011.4
2022-08-12T05:05:46.000Z,1011.5
2022-08-12T05:07:02.000Z,1011.5
2022-08-12T05:08:18.000Z,1011.4
2022-08-12T05:09:34.000Z,1011.4
2022-08-12T05:10:51.000Z,1011.5
2022-08-12T05:12:07.000Z,1011.5
2022-08-12T05:13:23.000Z,1011.5
2022-08-12T05:14:39.000Z,1011.5
2022-08-12T05:15:55.000Z,1011.5
2022-08-12T05:17:11.000Z,1011.5
2022-08-12T05:18:27.000Z,1011.5
2022-08-12T05:19:43.000Z,1011.4
2022-08-12T05:20:59.000Z,1011.4
2022-08-12T05:22:15.000Z,1011.4
2022-08-12T05:23:31.000Z,1011.4
2022-08-12T05:24:48.000Z,1011.5
2022-08-12T05:26:04.000Z,1011.4
2022-08-12T05:27:20.000Z,1011.5
2022-08-12T05:28:36.000Z,1011.4
2022-08-12T05:29:52.000Z,1011.4
2022-08-12T05:31:09.000Z,1011.5
2022-08-12T05:32:25.000Z,1011.5
2022-08-12T05:33:40.000Z,1011.5
2022-08-12T05:34:56.000Z,1011.5
2022-08-12T05:36:12.000Z,1011.5
2022-08-12T05:37:29.000Z,1011.4
2022-08-12T05:38:45.000Z,1011.4
2022-08-12T05:40:01.000Z,1011.4
2022-08-12T05:41:17.000Z,1011.4
2022-08-12T05:42:33.000Z,1011.4
2022-08-12T05:43:50.000Z,1011.4
2022-08-12T05:45:06.000Z,1011.4
2022-08-12T05:46:22.000Z,1011.4
2022-08-12T05:47:38.000Z,1011.4
2022-08-12T05:48:54.000Z,1011.4
2022-08-12T05:50:09.000Z,1011.4
2022-08-12T05:51:26.000Z,1011.5
2022-08-12T05:52:42.000Z,1011.5
2022-08-12T05:53:58.000Z,1011.5
2022-08-12T05:55:14.000Z,1011.5
2022-08-12T05:56:30.000Z,1011.4
2022-08-12T05:57:47.000Z,1011.4
2022-08-12T05:59:03.000Z,1011.4
2022-08-12T06:00:19.000Z,1011.4
2022-08-12T06:01:35.000Z,1011.4
2022-08-12T06:02:51.000Z,1011.4
2022-08-12T06:04:08.000Z,1011.4
2022-08-12T06:05:24.000Z,1011.4
2022-08-12T06:06:39.000Z,1011.4
2022-08-12T06:07:55.000Z,1011.4
2022-08-12T06:09:11.000Z,1011.5
2022-08-12T06:10:28.000Z,1011.4
2022-08-12T06:11:44.000Z,1011.5
2022-08-12T06:13:00.000Z,1011.4
2022-08-12T06:14:16.000Z,1011.4
2022-08-12T06:15:32.000Z,1011.5
2022-08-12T06:16:48.000Z,1011.5
2022-08-12T06:18:05.000Z,1011.6
2022-08-12T06:19:21.000Z,1011.5
2022-08-12T06:20:37.000Z,1011.5
2022-08-12T06:21:53.000Z,1011.6
2022-08-12T06:23:08.000Z,1011.4
2022-08-12T06:24:25.000Z,1011.6
2022-08-12T06:25:41.000Z,1011.5
2022-08-12T06:26:57.000Z,1011.6
2022-08-12T06:28:13.000Z,1011.5
2022-08-12T06:29:29.000Z,1011.5
2022-08-12T06:30:46.000Z,1011.5
2022-08-12T06:32:02.000Z,1011.5
2022-08-12T06:33:18.000Z,1011.6
2022-08-12T06:34:34.000Z,1011.5
2022-08-12T06:35:50.000Z,1011.5
2022-08-12T06:37:06.000Z,1011.5
2022-08-12T06:38:23.000Z,1011.5
2022-08-12T06:39:38.000Z,1011.4
2022-08-12T06:40:54.000Z,1011.4
2022-08-12T06:42:10.000Z,1011.5
2022-08-12T06:43:26.000Z,1011.4
2022-08-12T06:44:43.000Z,1011.3
2022-08-12T06:45:59.000Z,1011.5
2022-08-12T06:47:15.000Z,1011.5
2022-08-12T06:48:31.000Z,1011.5
2022-08-12T06:49:47.000Z,1011.4
2022-08-12T06:51:04.000Z,1011.4
2022-08-12T06:52:20.000Z,1011.4
2022-08-12T06:53:36.000Z,1011.4
2022-08-12T06:54:52.000Z,1011.4
2022-08-12T06:56:07.000Z,1011.4
2022-08-12T06:57:24.000Z,1011.4
2022-08-12T06:58:40.000Z,1011.4
2022-08-12T06:59:56.000Z,1011.4
2022-08-12T07:01:12.000Z,1011.4
2022-08-12T07:02:28.000Z,1011.5
2022-08-12T07:03:44.000Z,1011.4
2022-08-12T07:05:01.000Z,1011.4
2022-08-12T07:06:17.000Z,1011.5
2022-08-12T07:07:33.000Z,1011.5
2022-08-12T07:08:49.000Z,1011.5
2022-08-12T07:10:05.000Z,1011.5
2022-08-12T07:11:22.000Z,1011.5
2022-08-12T07:12:37.000Z,1011.5
2022-08-12T07:13:53.000Z,1011.6
2022-08-12T07:15:09.000Z,1011.6
2022-08-12T07:16:25.000Z,1011.5
2022-08-12T07:17:42.000Z,1011.6
2022-08-12T07:18:58.000Z,1011.7
2022-08-12T07:20:14.000Z,1011.6
2022-08-12T07:21:30.000Z,1011.7
2022-08-12T07:22:46.000Z,1011.6
2022-08-12T07:24:03.000Z,1011.6
2022-08-12T07:25:19.000Z,1011.6
2022-08-12T07:26:35.000Z,1011.6
2022-08-12T07:27:51.000Z,1011.7
2022-08-12T07:29:06.000Z,1011.7
2022-08-12T07:30:22.000Z,1011.6
2022-08-12T07:31:39.000Z,1011.6
2022-08-12T07:32:55.000Z,1011.7
2022-08-12T07:34:11.000Z,1011.7
2022-08-12T07:35:27.000Z,1011.7
2022-08-12T07:36:43.000Z,1011.7
2022-08-12T07:38:00.000Z,1011.7
2022-08-12T07:39:16.000Z,1011.7
2022-08-12T07:40:32.000Z,1011.7
2022-08-12T07:41:48.000Z,1011.8
2022-08-12T07:43:04.000Z,1011.8
2022-08-12T07:44:21.000Z,1011.8
2022-08-12T07:45:36.000Z,1011.8
2022-08-12T07:46:52.000Z,1011.8
2022-08-12T07:48:08.000Z,1011.7
2022-08-12T07:49:24.000Z,1011.8
2022-08-12T07:50:41.000Z,1011.8
2022-08-12T07:51:57.000Z,1011.8
2022-08-12T07:53:13.000Z,1011.8
2022-08-12T07:54:29.000Z,1011.8
2022-08-12T07:55:45.000Z,1011.8
2022-08-12T07:57:01.000Z,1011.8
2022-08-12T07:58:18.000Z,1011.8
2022-08-12T07:59:34.000Z,1011.8
2022-08-12T08:00:50.000Z,1011.8
2022-08-12T08:02:05.000Z,1011.8
2022-08-12T08:03:21.000Z,1011.7
2022-08-12T08:04:38.000Z,1011.8
2022-08-12T08:05:54.000Z,1011.8
2022-08-12T08:07:10.000Z,1011.8
2022-08-12T08:08:26.000Z,1011.8
2022-08-12T08:09:42.000Z,1011.7
2022-08-12T08:10:59.000Z,1011.7
2022-08-12T08:12:15.233Z,1011.7
2022-08-12T08:13:31.000Z,1011.8
2022-08-12T08:14:47.000Z,1011.8
2022-08-12T08:16:03.000Z,1011.7
2022-08-12T08:17:19.000Z,1011.7
2022-08-12T08:18:35.000Z,1011.8
2022-08-12T08:19:51.000Z,1011.7
2022-08-12T08:21:07.000Z,1011.8
2022-08-12T08:22:23.000Z,1011.7
2022-08-12T08:23:39.000Z,1011.8
2022-08-12T08:24:56.000Z,1011.8
2022-08-12T08:26:12.000Z,1011.7
2022-08-12T08:27:28.000Z,1011.7
2022-08-12T08:28:44.000Z,1011.7
2022-08-12T08:30:00.000Z,1011.7
2022-08-12T08:31:17.000Z,1011.7
2022-08-12T08:32:33.000Z,1011.7
2022-08-12T08:33:49.000Z,1011.6
2022-08-12T08:35:04.000Z,1011.7
2022-08-12T08:36:20.000Z,1011.6
2022-08-12T08:37:37.000Z,1011.6
2022-08-12T08:38:53.000Z,1011.7
2022-08-12T08:40:09.000Z,1011.7
2022-08-12T08:41:25.000Z,1011.7
2022-08-12T08:42:41.000Z,1011.7
2022-08-12T08:43:57.000Z,1011.7
2022-08-12T08:45:14.000Z,1011.7
2022-08-12T08:46:30.000Z,1011.7
2022-08-12T08:47:46.000Z,1011.7
2022-08-12T08:49:02.000Z,1011.7
2022-08-12T08:50:18.000Z,1011.7
2022-08-12T08:51:34.000Z,1011.8
2022-08-12T08:52:50.000Z,1011.7
2022-08-12T08:54:06.000Z,1011.8
2022-08-12T08:55:22.000Z,1011.8
2022-08-12T08:56:38.000Z,1011.8
2022-08-12T08:57:55.000Z,1011.8
2022-08-12T08:59:10.000Z,1011.8
2022-08-12T09:00:26.000Z,1011.8
2022-08-12T09:01:42.000Z,1011.8
2022-08-12T09:02:58.000Z,1011.7
2022-08-12T09:04:15.000Z,1011.7
2022-08-12T09:05:31.000Z,1011.7
2022-08-12T09:06:47.000Z,1011.6
2022-08-12T09:08:03.000Z,1011.7
2022-08-12T09:09:19.000Z,1011.6
2022-08-12T09:10:35.000Z,1011.7
2022-08-12T09:11:52.000Z,1011.7
2022-08-12T09:13:08.000Z,1011.6
2022-08-12T09:14:24.000Z,1011.7
2022-08-12T09:15:39.000Z,1011.6
2022-08-12T09:16:55.000Z,1011.6
2022-08-12T09:18:12.000Z,1011.6
2022-08-12T09:19:28.000Z,1011.7
2022-08-12T09:20:44.000Z,1011.5
2022-08-12T09:22:00.000Z,1011.6
2022-08-12T09:23:16.000Z,1011.6
2022-08-12T09:24:33.000Z,1011.6
2022-08-12T09:25:49.000Z,1011.6
2022-08-12T09:27:05.000Z,1011.5
2022-08-12T09:28:21.000Z,1011.5
2022-08-12T09:29:37.000Z,1011.4
2022-08-12T09:30:54.000Z,1011.4
2022-08-12T09:32:09.000Z,1011.5
2022-08-12T09:33:25.000Z,1011.5
2022-08-12T09:34:41.000Z,1011.4
2022-08-12T09:35:57.000Z,1011.5
2022-08-12T09:37:13.000Z,1011.5
2022-08-12T09:38:30.000Z,1011.4
2022-08-12T09:39:46.000Z,1011.5
2022-08-12T09:41:02.000Z,1011.4
2022-08-12T09:42:18.000Z,1011.4
2022-08-12T09:43:34.000Z,1011.4
2022-08-12T09:44:51.000Z,1011.4
2022-08-12T09:46:07.000Z,1011.4
2022-08-12T09:47:23.000Z,1011.4
2022-08-12T09:48:39.000Z,1011.3
2022-08-12T09:49:54.000Z,1011.4
2022-08-12T09:51:11.000Z,1011.4
2022-08-12T09:52:27.000Z,1011.3
2022-08-12T09:53:43.000Z,1011.3
2022-08-12T09:54:59.000Z,1011.3
2022-08-12T09:56:15.000Z,1011.3
2022-08-12T09:57:32.000Z,1011.3
2022-08-12T09:58:48.000Z,1011.2
2022-08-12T10:00:04.000Z,1011.2
2022-08-12T10:01:20.000Z,1011.3
2022-08-12T10:02:36.000Z,1011.3
2022-08-12T10:03:52.000Z,1011.3
2022-08-12T10:05:09.000Z,1011.3
2022-08-12T10:06:24.000Z,1011.3
2022-08-12T10:07:40.000Z,1011.2
2022-08-12T10:08:56.000Z,1011.3
2022-08-12T10:10:12.000Z,1011.2
2022-08-12T10:11:29.000Z,1011.3
2022-08-12T10:12:45.000Z,1011.3
2022-08-12T10:14:01.000Z,1011.3
2022-08-12T10:15:17.000Z,1011.1
2022-08-12T10:16:33.000Z,1011.1
2022-08-12T10:17:50.000Z,1011.1
2022-08-12T10:19:06.000Z,1011.1
2022-08-12T10:20:22.000Z,1011.1
2022-08-12T10:21:38.000Z,1011.1
2022-08-12T10:22:53.000Z,1011.1
2022-08-12T10:24:10.000Z,1011
2022-08-12T10:25:26.000Z,1011
2022-08-12T10:26:42.000Z,1011
2022-08-12T10:27:58.000Z,1011.1
2022-08-12T10:29:14.000Z,1011.1
2022-08-12T10:30:30.000Z,1011
2022-08-12T10:31:47.000Z,1011
2022-08-12T10:33:03.000Z,1010.9
2022-08-12T10:34:19.000Z,1010.9
2022-08-12T10:35:35.000Z,1010.9
2022-08-12T10:36:51.000Z,1010.9
2022-08-12T10:38:08.000Z,1010.9
2022-08-12T10:39:23.000Z,1010.9
2022-08-12T10:40:39.000Z,1010.9
2022-08-12T10:41:55.000Z,1010.9
2022-08-12T10:43:11.000Z,1010.9
2022-08-12T10:44:28.000Z,1010.8
2022-08-12T10:45:44.000Z,1010.8
2022-08-12T10:47:00.000Z,1010.7
2022-08-12T10:48:16.000Z,1010.8
2022-08-12T10:49:32.000Z,1010.8
2022-08-12T10:50:49.000Z,1010.7
2022-08-12T10:52:05.000Z,1010.7
2022-08-12T10:53:21.000Z,1010.7
2022-08-12T10:54:37.000Z,1010.7
2022-08-12T10:55:52.000Z,1010.6
2022-08-12T10:57:08.000Z,1010.6
2022-08-12T10:58:25.000Z,1010.6
2022-08-12T10:59:41.000Z,1010.7
2022-08-12T11:00:57.000Z,1010.5
2022-08-12T11:02:13.000Z,1010.5
2022-08-12T11:03:29.000Z,1010.5
2022-08-12T11:04:46.000Z,1010.5
2022-08-12T11:06:02.000Z,1010.6
2022-08-12T11:07:18.000Z,1010.5
2022-08-12T11:08:34.000Z,1010.6
2022-08-12T11:09:50.000Z,1010.5
2022-08-12T11:11:07.000Z,1010.4
2022-08-12T11:12:22.000Z,1010.5
2022-08-12T11:13:38.000Z,1010.4
2022-08-12T11:14:54.000Z,1010.5
2022-08-12T11:16:10.000Z,1010.5
2022-08-12T11:17:27.000Z,1010.5
2022-08-12T11:18:43.000Z,1010.4
2022-08-12T11:19:59.000Z,1010.4
2022-08-12T11:21:15.000Z,1010.3
2022-08-12T11:22:31.000Z,1010.3
2022-08-12T11:23:47.000Z,1010.3
2022-08-12T11:25:04.000Z,1010.4
2022-08-12T11:26:20.000Z,1010.3
2022-08-12T11:27:36.000Z,1010.3
2022-08-12T11:28:51.000Z,1010.3
2022-08-12T11:30:07.000Z,1010.3
2022-08-12T11:31:24.000Z,1010.2
2022-08-12T11:32:40.000Z,1010.2
2022-08-12T11:33:56.000Z,1010.3
2022-08-12T11:35:12.000Z,1010.2
2022-08-12T11:36:28.000Z,1010.2
2022-08-12T11:37:45.000Z,1010.3
2022-08-12T11:39:01.000Z,1010.4
2022-08-12T11:40:17.000Z,1010.4
2022-08-12T11:41:33.000Z,1010.3
2022-08-12T11:42:49.000Z,1010.2
2022-08-12T11:44:06.000Z,1010.1
2022-08-12T11:45:21.000Z,1010.1
2022-08-12T11:46:37.000Z,1010.2
2022-08-12T11:47:53.000Z,1010.1
2022-08-12T11:49:09.000Z,1010.1
2022-08-12T11:50:26.000Z,1010.3
2022-08-12T11:51:42.000Z,1010.1
2022-08-12T11:52:58.000Z,1010.2
2022-08-12T11:54:14.000Z,1010.2
2022-08-12T11:55:30.000Z,1010.1
2022-08-12T11:56:46.000Z,1010.1
2022-08-12T11:58:03.000Z,1010
2022-08-12T11:59:19.000Z,1010
2022-08-12T12:00:35.000Z,1010.1
2022-08-12T12:01:50.000Z,1010.1
2022-08-12T12:03:06.000Z,1010.1
2022-08-12T12:04:23.000Z,1010.1
2022-08-12T12:05:39.000Z,1010.1
2022-08-12T12:06:55.000Z,1010.1
2022-08-12T12:08:11.000Z,1010
2022-08-12T12:09:27.000Z,1010.1
2022-08-12T12:10:44.000Z,1010.1
2022-08-12T12:12:00.000Z,1010
2022-08-12T12:13:16.000Z,1010.1
2022-08-12T12:14:32.000Z,1010
2022-08-12T12:15:48.000Z,1010
2022-08-12T12:17:05.000Z,1010
2022-08-12T12:18:20.000Z,1010.1
2022-08-12T12:19:36.000Z,1009.9
2022-08-12T12:20:52.000Z,1009.9
2022-08-12T12:22:08.000Z,1010
2022-08-12T12:23:25.000Z,1009.9
2022-08-12T12:24:41.000Z,1009.9
2022-08-12T12:25:57.000Z,1009.9
2022-08-12T12:27:13.000Z,1009.9
2022-08-12T12:28:29.000Z,1010
2022-08-12T12:29:45.000Z,1010
2022-08-12T12:31:02.000Z,1010
2022-08-12T12:32:18.000Z,1009.9
2022-08-12T12:33:34.000Z,1009.9
2022-08-12T12:34:49.000Z,1009.8
2022-08-12T12:36:05.000Z,1009.8
2022-08-12T12:37:22.000Z,1009.8
2022-08-12T12:38:38.000Z,1009.9
2022-08-12T12:39:54.000Z,1009.8
2022-08-12T12:41:10.000Z,1009.7
2022-08-12T12:42:26.000Z,1009.7
2022-08-12T12:43:43.000Z,1009.6
2022-08-12T12:44:59.000Z,1009.6
2022-08-12T12:46:15.000Z,1009.7
2022-08-12T12:47:31.000Z,1009.6
2022-08-12T12:48:47.000Z,1009.7
2022-08-12T12:50:04.000Z,1009.7
2022-08-12T12:51:19.000Z,1009.6
2022-08-12T12:52:35.000Z,1009.5
2022-08-12T12:53:51.000Z,1009.5
2022-08-12T12:55:07.000Z,1009.6
2022-08-12T12:56:24.000Z,1009.5
2022-08-12T12:57:40.000Z,1009.5
2022-08-12T12:58:56.000Z,1009.4
2022-08-12T13:00:12.000Z,1009.4
2022-08-12T13:01:28.000Z,1009.4
2022-08-12T13:02:45.000Z,1009.5
2022-08-12T13:04:01.000Z,1009.3
2022-08-12T13:05:17.000Z,1009.3
2022-08-12T13:06:33.000Z,1009.3
2022-08-12T13:07:48.000Z,1009.3
2022-08-12T13:09:04.000Z,1009.3
2022-08-12T13:10:21.000Z,1009.4
2022-08-12T13:11:37.000Z,1009.4
2022-08-12T13:12:53.000Z,1009.3
2022-08-12T13:14:08.000Z,1009.3
2022-08-12T13:15:24.000Z,1009.3
2022-08-12T13:16:41.000Z,1009.2
2022-08-12T13:17:57.000Z,1009.3
2022-08-12T13:19:13.000Z,1009.3
2022-08-12T13:20:29.000Z,1009.3
2022-08-12T13:21:45.000Z,1009.3
2022-08-12T13:23:02.000Z,1009.3
2022-08-12T13:24:18.000Z,1009.3
2022-08-12T13:25:34.000Z,1009.3
2022-08-12T13:26:50.000Z,1009.3
2022-08-12T13:28:06.000Z,1009.2
2022-08-12T13:29:23.000Z,1009.2
2022-08-12T13:30:38.000Z,1009.2
2022-08-12T13:31:54.000Z,1009.2
2022-08-12T13:33:10.000Z,1009.1
2022-08-12T13:34:26.000Z,1009.2
2022-08-12T13:35:43.000Z,1009.2
2022-08-12T13:36:59.000Z,1009.2
2022-08-12T13:38:15.000Z,1009.2
2022-08-12T13:39:31.000Z,1009.2
2022-08-12T13:40:47.000Z,1009.1
2022-08-12T13:42:03.000Z,1009.1
2022-08-12T13:43:20.000Z,1009.1
2022-08-12T13:44:36.000Z,1009.1
2022-08-12T13:45:52.000Z,1009.1
2022-08-12T13:47:07.000Z,1009.1
2022-08-12T13:48:23.000Z,1009.1
2022-08-12T13:49:40.000Z,1009.1
2022-08-12T13:50:56.000Z,1009.1
2022-08-12T13:52:12.000Z,1009.1
2022-08-12T13:53:28.000Z,1009.1
2022-08-12T13:54:44.000Z,1009.1
2022-08-12T13:56:01.000Z,1009.1
2022-08-12T13:57:17.000Z,1009.1
2022-08-12T13:58:33.000Z,1009
2022-08-12T13:59:49.000Z,1009
2022-08-12T14:01:05.000Z,1009.1
2022-08-12T14:02:22.000Z,1009
2022-08-12T14:03:37.000Z,1009.1
2022-08-12T14:04:53.000Z,1009
2022-08-12T14:06:09.000Z,1009
2022-08-12T14:07:25.000Z,1009
2022-08-12T14:08:42.000Z,1009.1
2022-08-12T14:09:58.000Z,1009
2022-08-12T14:11:14.000Z,1009.1
2022-08-12T14:12:30.000Z,1009
2022-08-12T14:13:46.000Z,1009
2022-08-12T14:15:02.000Z,1008.9
2022-08-12T14:16:19.000Z,1009.1
2022-08-12T14:17:35.000Z,1009
2022-08-12T14:18:51.000Z,1009
2022-08-12T14:20:06.000Z,1009
2022-08-12T14:21:22.000Z,1009
2022-08-12T14:22:39.000Z,1009
2022-08-12T14:23:55.000Z,1009
2022-08-12T14:25:11.000Z,1009
2022-08-12T14:26:27.000Z,1008.9
2022-08-12T14:27:43.000Z,1009
2022-08-12T14:29:00.000Z,1009
2022-08-12T14:30:16.000Z,1009
2022-08-12T14:31:32.000Z,1009
2022-08-12T14:32:48.000Z,1009
2022-08-12T14:34:04.000Z,1009
2022-08-12T14:35:21.000Z,1009
2022-08-12T14:36:36.000Z,1008.9
2022-08-12T14:37:52.000Z,1008.9
2022-08-12T14:39:08.000Z,1008.9
2022-08-12T14:40:24.000Z,1008.9
2022-08-12T14:41:41.000Z,1008.8
2022-08-12T14:42:57.000Z,1008.9
2022-08-12T14:44:13.000Z,1008.8
2022-08-12T14:45:29.000Z,1008.9
2022-08-12T14:46:45.000Z,1009
2022-08-12T14:48:01.000Z,1008.9
2022-08-12T14:49:18.000Z,1008.8
2022-08-12T14:50:34.000Z,1008.8
2022-08-12T14:51:50.000Z,1008.8
2022-08-12T14:53:05.000Z,1008.8
2022-08-12T14:54:21.000Z,1008.8
2022-08-12T14:55:38.000Z,1008.7
2022-08-12T14:56:54.000Z,1008.7
2022-08-12T14:58:10.000Z,1008.7
2022-08-12T14:59:26.000Z,1008.7
2022-08-12T15:00:42.000Z,1008.8
2022-08-12T15:01:59.000Z,1008.7
2022-08-12T15:03:15.000Z,1008.6
2022-08-12T15:04:31.000Z,1008.7
2022-08-12T15:05:47.000Z,1008.7
2022-08-12T15:07:03.000Z,1008.7
2022-08-12T15:08:20.000Z,1008.6
2022-08-12T15:09:35.000Z,1008.6
2022-08-12T15:10:51.000Z,1008.7
2022-08-12T15:12:07.000Z,1008.6
2022-08-12T15:13:23.000Z,1008.6
2022-08-12T15:14:39.000Z,1008.7
2022-08-12T15:15:56.000Z,1008.7
2022-08-12T15:17:12.000Z,1008.6
2022-08-12T15:18:28.000Z,1008.6
2022-08-12T15:19:44.000Z,1008.5
2022-08-12T15:21:00.000Z,1008.6
2022-08-12T15:22:17.000Z,1008.6
2022-08-12T15:23:33.000Z,1008.6
2022-08-12T15:24:49.000Z,1008.5
2022-08-12T15:26:04.000Z,1008.6
2022-08-12T15:27:20.000Z,1008.6
2022-08-12T15:28:37.000Z,1008.6
2022-08-12T15:29:53.000Z,1008.5
2022-08-12T15:31:09.000Z,1008.6
2022-08-12T15:32:25.000Z,1008.6
2022-08-12T15:33:41.000Z,1008.5
2022-08-12T15:34:58.000Z,1008.6
2022-08-12T15:36:14.000Z,1008.5
2022-08-12T15:37:30.000Z,1008.5
2022-08-12T15:38:46.000Z,1008.5
2022-08-12T15:40:02.000Z,1008.5
2022-08-12T15:41:18.000Z,1008.5
2022-08-12T15:42:34.000Z,1008.6
2022-08-12T15:43:50.000Z,1008.5
2022-08-12T15:45:06.000Z,1008.6
2022-08-12T15:46:22.000Z,1008.5
2022-08-12T15:47:38.000Z,1008.5
2022-08-12T15:48:55.000Z,1008.4
2022-08-12T15:50:11.000Z,1008.4
2022-08-12T15:51:27.000Z,1008.5
2022-08-12T15:52:43.000Z,1008.4